createdAt,value
2019-04-04T21:58:24.044Z,52.17
2019-04-04T22:00:51.551Z,51.57
2019-04-04T22:03:19.213Z,50.97
2019-04-04T22:05:46.848Z,48.37
2019-04-04T22:08:14.443Z,50.57
2019-04-04T22:10:43.873Z,47.30
2019-04-04T22:13:11.382Z,42.27
2019-04-04T22:15:39.672Z,40.67
2019-04-04T22:18:07.335Z,44.13
2019-04-04T22:20:34.820Z,39.83
2019-04-04T22:23:02.945Z,38.00
2019-04-04T22:25:30.661Z,39.00
2019-04-04T22:27:58.126Z,35.73
2019-04-04T22:30:26.472Z,32.13
2019-04-04T22:32:53.971Z,32.33
2019-04-04T22:35:21.605Z,32.63
2019-04-04T22:37:49.085Z,34.87
2019-04-04T22:40:16.485Z,34.57
2019-04-04T22:42:43.988Z,33.23
2019-04-04T22:45:12.357Z,32.10
2019-04-04T22:47:41.330Z,39.07
2019-04-04T22:50:09.221Z,34.10
2019-04-04T22:52:36.732Z,32.07
2019-04-04T22:55:04.363Z,32.17
2019-04-04T22:57:32.866Z,33.60
2019-04-04T23:00:00.472Z,34.23
2019-04-04T23:02:28.677Z,33.33
2019-04-04T23:04:56.290Z,32.60
2019-04-04T23:07:23.863Z,32.07
2019-04-04T23:09:51.528Z,33.97
2019-04-04T23:12:19.117Z,30.07
2019-04-04T23:14:48.363Z,27.10
2019-04-04T23:17:16.423Z,30.83
2019-04-04T23:19:43.893Z,33.50
2019-04-04T23:22:11.284Z,32.90
2019-04-04T23:24:38.728Z,29.43
2019-04-04T23:27:06.123Z,29.60
2019-04-04T23:29:33.556Z,28.67
2019-04-04T23:32:00.983Z,28.97
2019-04-04T23:34:28.455Z,27.07
2019-04-04T23:36:55.903Z,28.40
2019-04-04T23:39:23.372Z,28.67
2019-04-04T23:41:50.822Z,26.90
2019-04-04T23:44:18.312Z,26.33
2019-04-04T23:46:45.713Z,28.13
2019-04-04T23:49:13.153Z,26.27
2019-04-04T23:51:40.528Z,22.83
2019-04-04T23:54:07.958Z,25.57
2019-04-04T23:56:35.389Z,28.63
2019-04-04T23:59:02.862Z,28.33
